createdAt,value
2019-03-13T00:00:03.944Z,1008.6
2019-03-13T00:01:03.091Z,1008.9
2019-03-13T00:02:03.808Z,1008.5
2019-03-13T00:03:03.637Z,1008.4
2019-03-13T00:04:03.757Z,1008.4
2019-03-13T00:05:02.874Z,1008.5
2019-03-13T00:06:03.835Z,1008.5
2019-03-13T00:07:02.982Z,1008.7
2019-03-13T00:08:03.675Z,1008.6
2019-03-13T00:09:03.869Z,1008.4
2019-03-13T00:10:03.099Z,1008.4
2019-03-13T00:11:03.672Z,1008.4
2019-03-13T00:12:03.284Z,1008.4
2019-03-13T00:13:03.098Z,1008.4
2019-03-13T00:14:02.982Z,1008.5
2019-03-13T00:15:03.782Z,1008.5
2019-03-13T00:16:03.121Z,1008.5
2019-03-13T00:17:03.597Z,1008.4
2019-03-13T00:18:03.368Z,1008.4
2019-03-13T00:19:03.476Z,1008.3
2019-03-13T00:20:04.001Z,1008.2
2019-03-13T00:21:03.956Z,1008.2
2019-03-13T00:22:03.731Z,1008.2
2019-03-13T00:23:03.754Z,1008.3
2019-03-13T00:24:03.737Z,1008.3
2019-03-13T00:25:03.901Z,1008.2
2019-03-13T00:26:03.631Z,1008.2
2019-03-13T00:27:03.767Z,1008.2
2019-03-13T00:28:03.710Z,1008.2
2019-03-13T00:29:03.889Z,1008.3
2019-03-13T00:30:03.457Z,1008.2
2019-03-13T00:31:03.492Z,1008.4
2019-03-13T00:32:03.618Z,1008.2
2019-03-13T00:33:03.255Z,1008.2
2019-03-13T00:34:03.495Z,1008.2
2019-03-13T00:35:03.556Z,1008.2
2019-03-13T00:36:03.421Z,1008.2
2019-03-13T00:37:03.499Z,1008.1
2019-03-13T00:38:03.747Z,1008
2019-03-13T00:39:03.219Z,1008.2
2019-03-13T00:40:03.843Z,1008.3
2019-03-13T00:41:03.599Z,1008.1
2019-03-13T00:42:03.670Z,1008.3
2019-03-13T00:43:03.799Z,1008.3
2019-03-13T00:44:03.488Z,1008.1
2019-03-13T00:45:03.901Z,1008.1
2019-03-13T00:46:03.289Z,1008.1
2019-03-13T00:47:03.510Z,1008.2
2019-03-13T00:48:03.592Z,1008.1
2019-03-13T00:49:03.566Z,1008.2
2019-03-13T00:50:03.425Z,1008.1
2019-03-13T00:51:03.107Z,1008.1
2019-03-13T00:52:03.481Z,1008.1
2019-03-13T00:53:03.417Z,1008.1
2019-03-13T00:54:03.225Z,1008.1
2019-03-13T00:55:03.601Z,1008.1
2019-03-13T00:56:03.248Z,1008
2019-03-13T00:57:03.588Z,1008
2019-03-13T00:58:03.526Z,1008
2019-03-13T00:59:03.238Z,1008.1
2019-03-13T01:00:03.295Z,1008
2019-03-13T01:01:03.002Z,1007.9
2019-03-13T01:02:03.236Z,1007.9
2019-03-13T01:03:03.052Z,1007.9
2019-03-13T01:04:02.909Z,1007.9
2019-03-13T01:05:02.932Z,1008
2019-03-13T01:06:03.396Z,1007.9
2019-03-13T01:07:03.014Z,1007.9
2019-03-13T01:08:03.704Z,1007.7
2019-03-13T01:09:03.905Z,1007.8
2019-03-13T01:10:03.130Z,1007.8
2019-03-13T01:11:03.155Z,1007.8
2019-03-13T01:12:02.924Z,1007.7
2019-03-13T01:13:03.983Z,1007.7
2019-03-13T01:14:03.828Z,1007.7
2019-03-13T01:15:02.939Z,1007.8
2019-03-13T01:16:03.842Z,1007.8
2019-03-13T01:17:03.026Z,1007.8
2019-03-13T01:18:03.656Z,1007.7
2019-03-13T01:19:03.886Z,1007.7
2019-03-13T01:20:03.382Z,1007.7
2019-03-13T01:21:03.453Z,1007.7
2019-03-13T01:22:03.670Z,1007.7
2019-03-13T01:23:03.681Z,1007.8
2019-03-13T01:24:03.700Z,1007.8
2019-03-13T01:25:03.114Z,1007.9
2019-03-13T01:26:03.538Z,1007.9
2019-03-13T01:27:03.464Z,1007.9
2019-03-13T01:28:03.303Z,1007.9
2019-03-13T01:29:03.266Z,1007.9
2019-03-13T01:30:03.815Z,1008
2019-03-13T01:31:03.265Z,1008
2019-03-13T01:32:03.134Z,1008
2019-03-13T01:33:03.204Z,1008.1
2019-03-13T01:34:03.382Z,1008.1
2019-03-13T01:35:03.390Z,1008.2
2019-03-13T01:36:03.109Z,1008.2
2019-03-13T01:37:03.110Z,1008.2
2019-03-13T01:38:03.589Z,1008.2
2019-03-13T01:39:02.926Z,1008.1
2019-03-13T01:40:03.068Z,1008.1
2019-03-13T01:41:03.918Z,1008.2
2019-03-13T01:42:03.822Z,1008.2
2019-03-13T01:43:03.801Z,1008.2
2019-03-13T01:44:03.786Z,1008.2
2019-03-13T01:45:03.629Z,1008.3
2019-03-13T01:46:03.597Z,1008.2
2019-03-13T01:47:03.854Z,1008.2
2019-03-13T01:48:03.626Z,1008.3
2019-03-13T01:49:03.380Z,1008.3
2019-03-13T01:50:03.205Z,1008.4
2019-03-13T01:51:03.853Z,1008.5
2019-03-13T01:52:02.272Z,1008.5
2019-03-13T01:53:03.483Z,1008.3
2019-03-13T01:54:03.701Z,1008.3
2019-03-13T01:55:03.512Z,1008.3
2019-03-13T01:56:03.339Z,1008.2
2019-03-13T01:57:03.446Z,1008.3
2019-03-13T01:58:03.604Z,1008.3
2019-03-13T01:59:03.258Z,1008.2
2019-03-13T02:00:03.278Z,1008.2
2019-03-13T02:01:02.786Z,1008
2019-03-13T02:02:03.263Z,1008.1
2019-03-13T02:03:03.094Z,1008.1
2019-03-13T02:04:03.170Z,1008.1
2019-03-13T02:05:03.042Z,1008
2019-03-13T02:06:03.415Z,1008.1
2019-03-13T02:07:03.951Z,1008.1
2019-03-13T02:08:03.885Z,1008
2019-03-13T02:09:03.720Z,1008
2019-03-13T02:10:02.991Z,1008
2019-03-13T02:11:03.034Z,1008
2019-03-13T02:12:03.809Z,1008
2019-03-13T02:13:03.517Z,1008.1
2019-03-13T02:14:03.723Z,1008
2019-03-13T02:15:03.038Z,1008.2
2019-03-13T02:16:03.672Z,1008.1
2019-03-13T02:17:04.022Z,1008.1
2019-03-13T02:18:03.677Z,1008.1
2019-03-13T02:19:03.683Z,1008.2
2019-03-13T02:20:03.748Z,1008.2
2019-03-13T02:21:03.891Z,1008.2
2019-03-13T02:22:03.873Z,1008.2
2019-03-13T02:23:03.817Z,1008.2
2019-03-13T02:24:03.938Z,1008.1
2019-03-13T02:25:03.510Z,1008.2
2019-03-13T02:26:03.814Z,1008.2
2019-03-13T02:27:03.613Z,1008.1
2019-03-13T02:28:03.789Z,1008.3
2019-03-13T02:29:03.616Z,1008.3
2019-03-13T02:30:03.482Z,1008.4
2019-03-13T02:31:03.494Z,1008.4
2019-03-13T02:32:03.365Z,1008.4
2019-03-13T02:33:03.564Z,1008.4
2019-03-13T02:34:03.517Z,1008.4
2019-03-13T02:35:03.891Z,1008.4
2019-03-13T02:36:03.183Z,1008.3
2019-03-13T02:37:03.102Z,1008.3
2019-03-13T02:38:03.409Z,1008.2
2019-03-13T02:39:03.428Z,1008.2
2019-03-13T02:40:03.351Z,1008.2
2019-03-13T02:41:03.255Z,1008.3
2019-03-13T02:42:03.388Z,1008.1
2019-03-13T02:43:03.409Z,1008.1
2019-03-13T02:44:03.249Z,1008.2
2019-03-13T02:45:03.254Z,1008.1
2019-03-13T02:46:03.365Z,1008
2019-03-13T02:47:03.178Z,1007.9
2019-03-13T02:48:03.476Z,1007.8
2019-03-13T02:49:03.091Z,1007.8
2019-03-13T02:50:03.461Z,1007.6
2019-03-13T02:51:03.098Z,1007.7
2019-03-13T02:52:03.510Z,1007.8
2019-03-13T02:53:03.177Z,1007.9
2019-03-13T02:54:02.802Z,1007.9
2019-03-13T02:55:03.142Z,1007.8
2019-03-13T02:56:03.356Z,1007.8
2019-03-13T02:57:03.048Z,1007.8
2019-03-13T02:58:03.871Z,1007.9
2019-03-13T02:59:03.274Z,1007.9
2019-03-13T03:00:03.928Z,1007.7
2019-03-13T03:01:03.827Z,1007.9
2019-03-13T03:02:03.847Z,1007.9
2019-03-13T03:03:04.027Z,1008
2019-03-13T03:04:03.915Z,1007.9
2019-03-13T03:05:03.490Z,1007.8
2019-03-13T03:06:03.662Z,1007.9
2019-03-13T03:07:03.582Z,1007.9
2019-03-13T03:08:04.042Z,1007.9
2019-03-13T03:09:03.299Z,1007.9
2019-03-13T03:10:03.487Z,1007.9
2019-03-13T03:11:03.448Z,1007.8
2019-03-13T03:12:03.493Z,1007.9
2019-03-13T03:13:03.503Z,1007.9
2019-03-13T03:14:03.573Z,1007.9
2019-03-13T03:15:03.538Z,1007.9
2019-03-13T03:16:03.009Z,1008.1
2019-03-13T03:17:03.448Z,1008.2
2019-03-13T03:18:02.923Z,1008.2
2019-03-13T03:19:03.350Z,1008.4
2019-03-13T03:20:03.415Z,1008.2
2019-03-13T03:21:03.346Z,1008.4
2019-03-13T03:22:03.141Z,1008.5
2019-03-13T03:23:03.241Z,1008.4
2019-03-13T03:24:03.273Z,1008.4
2019-03-13T03:25:03.080Z,1008.5
2019-03-13T03:26:03.261Z,1008.5
2019-03-13T03:27:03.287Z,1008.6
2019-03-13T03:28:03.222Z,1008.6
2019-03-13T03:29:03.674Z,1008.8
2019-03-13T03:30:03.390Z,1008.9
2019-03-13T03:31:03.202Z,1008.9
2019-03-13T03:32:03.132Z,1008.9
2019-03-13T03:33:02.927Z,1008.9
2019-03-13T03:34:03.503Z,1008.8
2019-03-13T03:35:03.244Z,1008.7
2019-03-13T03:36:03.636Z,1008.6
2019-03-13T03:37:03.528Z,1008.9
2019-03-13T03:38:03.926Z,1008.9
2019-03-13T03:39:04.037Z,1008.9
2019-03-13T03:40:03.906Z,1008.9
2019-03-13T03:41:03.935Z,1008.9
2019-03-13T03:42:03.533Z,1008.6
2019-03-13T03:43:03.741Z,1008.9
2019-03-13T03:44:03.668Z,1008.9
2019-03-13T03:45:03.478Z,1008.9
2019-03-13T03:46:03.189Z,1009
2019-03-13T03:47:03.583Z,1009
2019-03-13T03:48:03.474Z,1009.1
2019-03-13T03:49:02.247Z,1009.2
2019-03-13T03:50:03.526Z,1009.2
2019-03-13T03:51:03.258Z,1009.2
2019-03-13T03:52:03.210Z,1009.3
2019-03-13T03:53:03.161Z,1009.2
2019-03-13T03:54:03.351Z,1009.5
2019-03-13T03:55:03.147Z,1009.5
2019-03-13T03:56:03.502Z,1009.4
2019-03-13T03:57:03.404Z,1009.6
2019-03-13T03:58:03.257Z,1009.6
2019-03-13T03:59:03.408Z,1009.6
2019-03-13T04:00:03.237Z,1009.6
2019-03-13T04:01:02.883Z,1009.6
2019-03-13T04:02:03.900Z,1009.6
2019-03-13T04:03:02.849Z,1009.3
2019-03-13T04:04:03.190Z,1009.6
2019-03-13T04:05:04.072Z,1010
2019-03-13T04:06:03.801Z,1009.7
2019-03-13T04:07:03.928Z,1010.1
2019-03-13T04:08:03.885Z,1009.8
2019-03-13T04:09:03.202Z,1009.8
2019-03-13T04:10:04.117Z,1009.8
2019-03-13T04:11:04.067Z,1010.1
2019-03-13T04:12:03.618Z,1010.2
2019-03-13T04:13:03.783Z,1009.9
2019-03-13T04:14:03.887Z,1010.2
2019-03-13T04:15:03.952Z,1010.1
2019-03-13T04:16:03.570Z,1010.1
2019-03-13T04:17:03.625Z,1010.4
2019-03-13T04:18:03.699Z,1010.4
2019-03-13T04:19:03.796Z,1010.2
2019-03-13T04:20:04.015Z,1010.5
2019-03-13T04:21:03.629Z,1010.4
2019-03-13T04:22:03.633Z,1010.6
2019-03-13T04:23:03.790Z,1010.6
2019-03-13T04:24:03.583Z,1010.7
2019-03-13T04:25:03.531Z,1010.6
2019-03-13T04:26:03.583Z,1010.8
2019-03-13T04:27:03.565Z,1010.9
2019-03-13T04:28:03.488Z,1010.8
2019-03-13T04:29:02.932Z,1010.9
2019-03-13T04:30:03.472Z,1010.9
2019-03-13T04:31:03.502Z,1010.9
2019-03-13T04:32:03.235Z,1010.9
2019-03-13T04:33:03.077Z,1010.8
2019-03-13T04:34:02.867Z,1010.7
2019-03-13T04:35:03.392Z,1010.8
2019-03-13T04:36:03.268Z,1010.8
2019-03-13T04:37:04.067Z,1010.8
2019-03-13T04:38:03.295Z,1011
2019-03-13T04:39:03.000Z,1011
2019-03-13T04:40:03.247Z,1011
2019-03-13T04:41:04.015Z,1011
2019-03-13T04:42:03.979Z,1011.3
2019-03-13T04:43:03.209Z,1011.1
2019-03-13T04:44:03.556Z,1010.9
2019-03-13T04:45:04.042Z,1010.9
2019-03-13T04:46:03.921Z,1011.3
2019-03-13T04:47:03.274Z,1011.4
2019-03-13T04:48:03.842Z,1011.3
2019-03-13T04:49:03.872Z,1011.5
2019-03-13T04:50:03.634Z,1011.4
2019-03-13T04:51:03.500Z,1011.3
2019-03-13T04:52:03.954Z,1011.5
2019-03-13T04:53:03.782Z,1011.4
2019-03-13T04:54:03.834Z,1011.5
2019-03-13T04:55:03.307Z,1011.5
2019-03-13T04:56:03.701Z,1011.5
2019-03-13T04:57:03.622Z,1011.6
2019-03-13T04:58:03.067Z,1011.7
2019-03-13T04:59:03.499Z,1011.6
2019-03-13T05:00:03.759Z,1011.7
2019-03-13T05:01:03.675Z,1011.7
2019-03-13T05:02:03.496Z,1011.6
2019-03-13T05:03:03.680Z,1011.7
2019-03-13T05:04:03.861Z,1011.7
2019-03-13T05:05:03.491Z,1011.6
2019-03-13T05:06:03.353Z,1011.7
2019-03-13T05:07:03.490Z,1011.9
2019-03-13T05:08:03.280Z,1011.9
2019-03-13T05:09:03.092Z,1011.9
2019-03-13T05:10:03.304Z,1012.1
2019-03-13T05:11:03.277Z,1011.9
2019-03-13T05:12:03.235Z,1012.2
2019-03-13T05:13:04.842Z,1012.2
2019-03-13T05:14:03.178Z,1012.1
2019-03-13T05:15:03.507Z,1012
2019-03-13T05:16:03.167Z,1012.3
2019-03-13T05:17:03.258Z,1012.3
2019-03-13T05:18:03.615Z,1012.3
2019-03-13T05:19:03.183Z,1012.4
2019-03-13T05:20:03.443Z,1012.4
2019-03-13T05:21:03.052Z,1012.2
2019-03-13T05:22:02.966Z,1012.4
2019-03-13T05:23:03.265Z,1012.3
2019-03-13T05:24:03.177Z,1012.3
2019-03-13T05:25:03.028Z,1012.2
2019-03-13T05:26:03.301Z,1012.3
2019-03-13T05:27:03.207Z,1012.4
2019-03-13T05:28:04.036Z,1012.4
2019-03-13T05:29:03.894Z,1012.5
2019-03-13T05:30:04.045Z,1012.4
2019-03-13T05:31:03.380Z,1012.5
2019-03-13T05:32:03.854Z,1012.5
2019-03-13T05:33:03.751Z,1012.5
2019-03-13T05:34:03.854Z,1012.6
2019-03-13T05:35:03.527Z,1012.6
2019-03-13T05:36:03.871Z,1012.5
2019-03-13T05:37:03.149Z,1012.7
2019-03-13T05:38:03.991Z,1012.7
2019-03-13T05:39:03.637Z,1012.7
2019-03-13T05:40:03.665Z,1012.8
2019-03-13T05:41:03.527Z,1012.7
2019-03-13T05:42:03.784Z,1012.6
2019-03-13T05:43:03.679Z,1012.7
2019-03-13T05:44:03.792Z,1012.7
2019-03-13T05:45:03.670Z,1012.7
2019-03-13T05:46:03.497Z,1012.6
2019-03-13T05:47:03.627Z,1012.8
2019-03-13T05:48:03.856Z,1012.9
2019-03-13T05:49:03.556Z,1012.8
2019-03-13T05:50:03.559Z,1012.9
2019-03-13T05:51:03.671Z,1013
2019-03-13T05:52:03.253Z,1013
2019-03-13T05:53:03.449Z,1013
2019-03-13T05:54:03.444Z,1012.9
2019-03-13T05:55:03.300Z,1013
2019-03-13T05:56:03.365Z,1012.9
2019-03-13T05:57:03.066Z,1013.1
2019-03-13T05:58:03.300Z,1013
2019-03-13T05:59:03.580Z,1012.8
2019-03-13T06:00:03.633Z,1012.9
2019-03-13T06:01:03.417Z,1012.9
2019-03-13T06:02:03.364Z,1012.9
2019-03-13T06:03:03.232Z,1013
2019-03-13T06:04:03.462Z,1013.1
2019-03-13T06:05:03.341Z,1013.1
2019-03-13T06:06:03.359Z,1013
2019-03-13T06:07:03.278Z,1013.1
2019-03-13T06:08:03.045Z,1013.1
2019-03-13T06:09:03.013Z,1013.1
2019-03-13T06:10:03.251Z,1013.1
2019-03-13T06:11:03.545Z,1013.2
2019-03-13T06:12:03.081Z,1013.1
2019-03-13T06:13:03.536Z,1013.2
2019-03-13T06:14:03.760Z,1013.2
2019-03-13T06:15:04.272Z,1013.2
2019-03-13T06:16:03.996Z,1013.3
2019-03-13T06:17:04.000Z,1013.3
2019-03-13T06:18:03.785Z,1013.2
2019-03-13T06:19:03.781Z,1013.3
2019-03-13T06:20:03.221Z,1013.2
2019-03-13T06:21:03.719Z,1013.4
2019-03-13T06:22:03.870Z,1013.4
2019-03-13T06:23:03.658Z,1013.3
2019-03-13T06:24:03.831Z,1013.4
2019-03-13T06:25:03.763Z,1013.4
2019-03-13T06:26:03.869Z,1013.4
2019-03-13T06:27:03.462Z,1013.5
2019-03-13T06:28:03.461Z,1013.5
2019-03-13T06:29:03.617Z,1013.5
2019-03-13T06:30:03.864Z,1013.5
2019-03-13T06:31:03.547Z,1013.6
2019-03-13T06:32:03.499Z,1013.5
2019-03-13T06:33:03.573Z,1013.7
2019-03-13T06:34:03.462Z,1013.6
2019-03-13T06:35:03.402Z,1013.7
2019-03-13T06:36:03.417Z,1013.6
2019-03-13T06:37:03.507Z,1013.6
2019-03-13T06:38:03.250Z,1013.7
2019-03-13T06:39:03.262Z,1013.7
2019-03-13T06:40:03.239Z,1013.6
2019-03-13T06:41:05.760Z,1013.6
2019-03-13T06:42:03.006Z,1013.7
2019-03-13T06:43:03.324Z,1013.7
2019-03-13T06:44:03.354Z,1013.7
2019-03-13T06:45:03.001Z,1013.7
2019-03-13T06:46:03.181Z,1013.6
2019-03-13T06:47:03.890Z,1013.7
2019-03-13T06:48:03.183Z,1013.7
2019-03-13T06:49:04.016Z,1013.7
2019-03-13T06:50:03.992Z,1013.7
2019-03-13T06:51:03.934Z,1013.8
2019-03-13T06:52:03.905Z,1013.8
2019-03-13T06:53:03.973Z,1013.8
2019-03-13T06:54:03.900Z,1013.8
2019-03-13T06:55:03.879Z,1013.7
2019-03-13T06:56:03.851Z,1013.9
2019-03-13T06:57:03.622Z,1013.8
2019-03-13T06:58:03.580Z,1013.9
2019-03-13T06:59:03.692Z,1013.8
2019-03-13T07:00:03.729Z,1013.8
2019-03-13T07:01:03.604Z,1013.8
2019-03-13T07:02:03.250Z,1013.8
2019-03-13T07:03:03.216Z,1013.8
2019-03-13T07:04:03.412Z,1013.8
2019-03-13T07:05:03.931Z,1013.9
2019-03-13T07:06:03.729Z,1013.9
2019-03-13T07:07:03.315Z,1013.9
2019-03-13T07:08:03.502Z,1013.9
2019-03-13T07:09:03.256Z,1014
2019-03-13T07:10:03.425Z,1014
2019-03-13T07:11:03.392Z,1013.9
2019-03-13T07:12:03.409Z,1013.8
2019-03-13T07:13:03.054Z,1013.9
2019-03-13T07:14:03.354Z,1014
2019-03-13T07:15:03.507Z,1014.1
2019-03-13T07:16:03.878Z,1014.1
2019-03-13T07:17:03.001Z,1013.9
2019-03-13T07:18:03.439Z,1013.9
2019-03-13T07:19:03.351Z,1013.9
2019-03-13T07:20:02.823Z,1013.9
2019-03-13T07:21:03.009Z,1013.9
2019-03-13T07:22:03.110Z,1013.8
2019-03-13T07:23:03.117Z,1013.8
2019-03-13T07:24:03.216Z,1013.9
2019-03-13T07:25:02.924Z,1013.8
2019-03-13T07:26:02.896Z,1013.9
2019-03-13T07:27:03.254Z,1014
2019-03-13T07:28:03.991Z,1013.8
2019-03-13T07:29:13.221Z,1013.8
2019-03-13T07:30:03.565Z,1013.8
2019-03-13T07:31:03.095Z,1013.8
2019-03-13T07:32:03.765Z,1013.8
2019-03-13T07:33:03.905Z,1013.8
2019-03-13T07:34:03.870Z,1013.8
2019-03-13T07:35:04.176Z,1013.7
2019-03-13T07:36:03.767Z,1013.7
2019-03-13T07:37:03.539Z,1013.6
2019-03-13T07:38:03.559Z,1013.6
2019-03-13T07:39:03.677Z,1013.6
2019-03-13T07:40:03.685Z,1013.7
2019-03-13T07:41:03.827Z,1013.7
2019-03-13T07:42:03.813Z,1013.7
2019-03-13T07:43:03.595Z,1013.8
2019-03-13T07:44:03.862Z,1013.6
2019-03-13T07:45:03.684Z,1013.6
2019-03-13T07:46:03.560Z,1013.6
2019-03-13T07:47:03.529Z,1013.6
2019-03-13T07:48:03.933Z,1013.6
2019-03-13T07:49:03.378Z,1013.6
2019-03-13T07:50:03.311Z,1013.5
2019-03-13T07:51:03.858Z,1013.5
2019-03-13T07:52:03.298Z,1013.5
2019-03-13T07:53:03.732Z,1013.4
2019-03-13T07:54:03.616Z,1013.4
2019-03-13T07:55:03.680Z,1013.6
2019-03-13T07:56:03.432Z,1013.5
2019-03-13T07:57:03.301Z,1013.4
2019-03-13T07:58:03.375Z,1013.4
2019-03-13T07:59:03.046Z,1013.5
2019-03-13T08:00:03.580Z,1013.5
2019-03-13T08:01:03.182Z,1013.6
2019-03-13T08:02:03.404Z,1013.6
2019-03-13T08:03:02.887Z,1013.6
2019-03-13T08:04:06.153Z,1013.6
2019-03-13T08:05:03.121Z,1013.6
2019-03-13T08:06:03.306Z,1013.6
2019-03-13T08:07:03.209Z,1013.5
2019-03-13T08:08:03.471Z,1013.6
2019-03-13T08:09:03.307Z,1013.6
2019-03-13T08:10:03.235Z,1013.5
2019-03-13T08:11:03.169Z,1013.5
2019-03-13T08:12:03.428Z,1013.6
2019-03-13T08:13:03.375Z,1013.8
2019-03-13T08:14:03.739Z,1013.7
2019-03-13T08:15:03.630Z,1013.7
2019-03-13T08:16:03.567Z,1013.8
2019-03-13T08:17:03.730Z,1013.8
2019-03-13T08:18:03.892Z,1013.7
2019-03-13T08:19:03.845Z,1013.8
2019-03-13T08:20:03.790Z,1013.8
2019-03-13T08:21:03.553Z,1013.9
2019-03-13T08:22:03.661Z,1013.9
2019-03-13T08:23:03.737Z,1013.8
2019-03-13T08:24:03.595Z,1013.8
2019-03-13T08:25:03.436Z,1013.8
2019-03-13T08:26:03.521Z,1013.7
2019-03-13T08:27:03.512Z,1013.6
2019-03-13T08:28:03.635Z,1013.7
2019-03-13T08:29:03.566Z,1013.7
2019-03-13T08:30:03.295Z,1013.7
2019-03-13T08:31:03.559Z,1013.6
2019-03-13T08:32:03.177Z,1013.5
2019-03-13T08:33:03.946Z,1013.6
2019-03-13T08:34:03.405Z,1013.6
2019-03-13T08:35:02.999Z,1013.5
2019-03-13T08:36:03.548Z,1013.5
2019-03-13T08:37:03.359Z,1013.6
2019-03-13T08:38:03.961Z,1013.5
2019-03-13T08:39:03.573Z,1013.6
2019-03-13T08:40:03.291Z,1013.5
2019-03-13T08:41:03.476Z,1013.7
2019-03-13T08:42:03.354Z,1013.5
2019-03-13T08:43:03.254Z,1013.4
2019-03-13T08:44:03.219Z,1013.5
2019-03-13T08:45:03.187Z,1013.5
2019-03-13T08:46:03.159Z,1013.5
2019-03-13T08:47:03.151Z,1013.5
2019-03-13T08:48:03.139Z,1013.4
2019-03-13T08:49:04.129Z,1013.5
2019-03-13T08:50:03.159Z,1013.3
2019-03-13T08:51:03.341Z,1013.4
2019-03-13T08:52:03.897Z,1013.3
2019-03-13T08:53:03.068Z,1013.4
2019-03-13T08:54:02.994Z,1013.3
2019-03-13T08:55:04.612Z,1013.3
2019-03-13T08:56:03.808Z,1013.3
2019-03-13T08:57:03.677Z,1013.5
2019-03-13T08:58:03.956Z,1013.5
2019-03-13T08:59:03.959Z,1013.5
2019-03-13T09:00:03.079Z,1013.4
2019-03-13T09:01:03.758Z,1013.3
2019-03-13T09:02:03.666Z,1013.3
2019-03-13T09:03:03.874Z,1013.3
2019-03-13T09:04:02.806Z,1013.3
2019-03-13T09:05:03.711Z,1013.3
2019-03-13T09:06:03.606Z,1013.3
2019-03-13T09:07:03.660Z,1013.2
2019-03-13T09:08:03.689Z,1013.3
2019-03-13T09:09:03.685Z,1012.9
2019-03-13T09:10:03.840Z,1012.9
2019-03-13T09:11:03.709Z,1012.8
2019-03-13T09:12:03.581Z,1012.9
2019-03-13T09:13:03.414Z,1012.7
2019-03-13T09:14:03.610Z,1012.9
2019-03-13T09:15:03.557Z,1012.9
2019-03-13T09:16:03.669Z,1013
2019-03-13T09:17:03.415Z,1012.8
2019-03-13T09:18:03.555Z,1012.4
2019-03-13T09:19:03.091Z,1012.8
2019-03-13T09:20:03.461Z,1012.7
2019-03-13T09:21:03.304Z,1012.6
2019-03-13T09:22:03.424Z,1012.6
2019-03-13T09:23:03.144Z,1012.6
2019-03-13T09:24:03.070Z,1012.6
2019-03-13T09:25:13.125Z,1012.4
2019-03-13T09:26:03.385Z,1012.4
2019-03-13T09:27:03.718Z,1012.5
2019-03-13T09:28:03.343Z,1012.4
2019-03-13T09:29:02.904Z,1012.5
2019-03-13T09:30:03.489Z,1012.3
2019-03-13T09:31:03.245Z,1012.4
2019-03-13T09:32:03.562Z,1012.4
2019-03-13T09:33:03.174Z,1012.4
2019-03-13T09:34:03.025Z,1012.4
2019-03-13T09:35:03.117Z,1012.2
2019-03-13T09:36:03.100Z,1012.2
2019-03-13T09:37:04.023Z,1012.3
2019-03-13T09:38:03.854Z,1012.3
2019-03-13T09:39:04.053Z,1012.2
2019-03-13T09:40:03.885Z,1012.4
2019-03-13T09:41:03.772Z,1012.2
2019-03-13T09:42:03.848Z,1012.3
2019-03-13T09:43:03.376Z,1012.3
2019-03-13T09:44:03.192Z,1012.2
2019-03-13T09:45:03.729Z,1012.5
2019-03-13T09:46:03.743Z,1012.4
2019-03-13T09:47:03.466Z,1012.5
2019-03-13T09:48:03.871Z,1012.4
2019-03-13T09:49:02.601Z,1012.5
2019-03-13T09:50:03.814Z,1012.5
2019-03-13T09:51:03.284Z,1012.4
2019-03-13T09:52:03.811Z,1012.3
2019-03-13T09:53:03.589Z,1012.3
2019-03-13T09:54:03.425Z,1012.4
2019-03-13T09:55:05.151Z,1012.5
2019-03-13T09:56:03.493Z,1012.5
2019-03-13T09:57:03.417Z,1012.6
2019-03-13T09:58:03.470Z,1012.5
2019-03-13T09:59:03.539Z,1012.5
2019-03-13T10:00:03.335Z,1012.5
2019-03-13T10:01:03.018Z,1012.5
2019-03-13T10:02:02.946Z,1012.5
2019-03-13T10:03:03.323Z,1012.7
2019-03-13T10:04:03.098Z,1012.6
2019-03-13T10:05:03.332Z,1012.7
2019-03-13T10:06:03.300Z,1012.8
2019-03-13T10:07:03.017Z,1012.7
2019-03-13T10:08:04.023Z,1012.8
2019-03-13T10:09:03.041Z,1012.8
2019-03-13T10:10:03.069Z,1012.8
2019-03-13T10:11:03.137Z,1012.8
2019-03-13T10:12:03.335Z,1012.8
2019-03-13T10:13:03.848Z,1013
2019-03-13T10:14:03.163Z,1013
2019-03-13T10:15:03.711Z,1013.1
2019-03-13T10:16:03.092Z,1013.2
2019-03-13T10:17:11.732Z,1013.1
2019-03-13T10:18:03.142Z,1013.2
2019-03-13T10:19:03.433Z,1013.4
2019-03-13T10:20:03.913Z,1013.2
2019-03-13T10:21:03.888Z,1013.3
2019-03-13T10:22:03.822Z,1013.3
2019-03-13T10:23:03.961Z,1013.1
2019-03-13T10:24:03.192Z,1013
2019-03-13T10:25:04.011Z,1013
2019-03-13T10:26:03.722Z,1012.9
2019-03-13T10:27:03.041Z,1012.9
2019-03-13T10:28:03.658Z,1012.9
2019-03-13T10:29:03.852Z,1012.9
2019-03-13T10:30:03.142Z,1013
2019-03-13T10:31:03.764Z,1012.9
2019-03-13T10:32:03.378Z,1012.9
2019-03-13T10:33:03.815Z,1012.9
2019-03-13T10:34:03.941Z,1013
2019-03-13T10:35:03.857Z,1013
2019-03-13T10:36:03.619Z,1013
2019-03-13T10:37:03.603Z,1012.9
2019-03-13T10:38:14.872Z,1012.8
2019-03-13T10:39:03.675Z,1012.9
2019-03-13T10:40:03.720Z,1012.7
2019-03-13T10:41:03.599Z,1012.6
2019-03-13T10:42:03.537Z,1012.6
2019-03-13T10:43:03.598Z,1012.6
2019-03-13T10:44:03.399Z,1012.6
2019-03-13T10:45:03.200Z,1012.5
2019-03-13T10:46:03.870Z,1012.5
2019-03-13T10:47:03.159Z,1012.5
2019-03-13T10:48:03.321Z,1012.5
2019-03-13T10:49:03.024Z,1012.4
2019-03-13T10:50:03.465Z,1012.4
2019-03-13T10:51:03.466Z,1012.3
2019-03-13T10:52:03.086Z,1012.4
2019-03-13T10:53:03.187Z,1012.4
2019-03-13T10:54:03.483Z,1012.3
2019-03-13T10:55:03.407Z,1012.3
2019-03-13T10:56:02.886Z,1012.4
2019-03-13T10:57:03.194Z,1012.5
2019-03-13T10:58:03.128Z,1012.6
2019-03-13T10:59:02.993Z,1012.6
2019-03-13T11:00:03.144Z,1012.5
2019-03-13T11:01:03.717Z,1012.4
2019-03-13T11:02:03.128Z,1012.5
2019-03-13T11:03:02.986Z,1012.4
2019-03-13T11:04:03.191Z,1012.5
2019-03-13T11:05:03.226Z,1012.4
2019-03-13T11:06:03.188Z,1012.5
2019-03-13T11:07:03.307Z,1012.5
2019-03-13T11:08:04.018Z,1012.4
2019-03-13T11:09:03.059Z,1012.3
2019-03-13T11:10:03.684Z,1012.4
2019-03-13T11:11:03.030Z,1012.3
2019-03-13T11:12:03.821Z,1012.4
2019-03-13T11:13:03.731Z,1012.3
2019-03-13T11:14:16.497Z,1012.3
2019-03-13T11:15:02.645Z,1012.4
2019-03-13T11:16:03.753Z,1012.4
2019-03-13T11:17:03.755Z,1012.4
2019-03-13T11:18:03.922Z,1012.2
2019-03-13T11:19:03.718Z,1012.3
2019-03-13T11:20:03.411Z,1012.1
2019-03-13T11:21:03.703Z,1012.2
2019-03-13T11:22:03.551Z,1012
2019-03-13T11:23:03.331Z,1011.8
2019-03-13T11:24:03.329Z,1012
2019-03-13T11:25:03.439Z,1012.1
2019-03-13T11:26:03.643Z,1011.9
2019-03-13T11:27:03.254Z,1012
2019-03-13T11:28:03.194Z,1011.9
2019-03-13T11:29:03.418Z,1011.9
2019-03-13T11:30:03.298Z,1011.9
2019-03-13T11:31:03.202Z,1011.9
2019-03-13T11:32:02.974Z,1011.9
2019-03-13T11:33:03.163Z,1011.9
2019-03-13T11:34:02.881Z,1011.9
2019-03-13T11:35:03.516Z,1012
2019-03-13T11:36:03.127Z,1012
2019-03-13T11:37:03.210Z,1012
2019-03-13T11:38:03.037Z,1011.9
2019-03-13T11:39:03.394Z,1011.9
2019-03-13T11:40:02.999Z,1011.9
2019-03-13T11:41:03.228Z,1011.8
2019-03-13T11:42:02.660Z,1011.8
2019-03-13T11:43:03.872Z,1011.9
2019-03-13T11:44:03.703Z,1011.8
2019-03-13T11:45:04.098Z,1011.8
2019-03-13T11:46:03.901Z,1011.8
2019-03-13T11:47:03.829Z,1011.8
2019-03-13T11:48:03.603Z,1011.8
2019-03-13T11:49:04.101Z,1011.8
2019-03-13T11:50:04.068Z,1011.8
2019-03-13T11:51:03.606Z,1011.7
2019-03-13T11:52:03.711Z,1011.7
2019-03-13T11:53:03.684Z,1011.6
2019-03-13T11:54:03.530Z,1011.6
2019-03-13T11:55:03.396Z,1011.6
2019-03-13T11:56:03.890Z,1011.5
2019-03-13T11:57:03.975Z,1011.6
2019-03-13T11:58:03.685Z,1011.4
2019-03-13T11:59:03.634Z,1011.5
2019-03-13T12:00:03.847Z,1011.4
2019-03-13T12:01:03.322Z,1011.5
2019-03-13T12:02:03.219Z,1011.4
2019-03-13T12:03:03.563Z,1011.5
2019-03-13T12:04:03.715Z,1011.4
2019-03-13T12:05:03.644Z,1011.4
2019-03-13T12:06:03.804Z,1011.5
2019-03-13T12:07:03.356Z,1011.4
2019-03-13T12:08:03.369Z,1011.4
2019-03-13T12:09:03.334Z,1011.4
2019-03-13T12:10:03.842Z,1011.4
2019-03-13T12:11:03.253Z,1011.3
2019-03-13T12:12:03.240Z,1011.3
2019-03-13T12:13:03.275Z,1011.4
2019-03-13T12:14:03.325Z,1011.3
2019-03-13T12:15:03.073Z,1011.3
2019-03-13T12:16:03.169Z,1011.4
2019-03-13T12:17:03.403Z,1011.4
2019-03-13T12:18:03.223Z,1011.4
2019-03-13T12:19:03.047Z,1011.4
2019-03-13T12:20:03.201Z,1011.5
2019-03-13T12:21:03.410Z,1011.3
2019-03-13T12:22:03.099Z,1011.4
2019-03-13T12:23:03.905Z,1011.3
2019-03-13T12:24:02.914Z,1011.3
2019-03-13T12:25:03.201Z,1011.3
2019-03-13T12:26:04.095Z,1011.2
2019-03-13T12:27:03.000Z,1011.3
2019-03-13T12:28:04.081Z,1011.2
2019-03-13T12:29:03.147Z,1011.2
2019-03-13T12:30:03.988Z,1011.3
2019-03-13T12:31:03.031Z,1011.2